Time;durP1;ratioP1;P1;durP2;ratioP2;P2;SDS_P1;SDS_P2;PMS_P1;PMS_P2;Temp;Humidity;BMP_temperature;BMP_pressure;BME280_temperature;BME280_humidity;BME280_pressure;Samples;Min_cycle;Max_cycle;Signal;HPM_P1;HPM_P2
2023/03/29 00:01:11;;;;;;;7.93;3.00;;;;;;;5.76;83.31;101600.50;5034262;28;20509;-68
2023/03/29 00:03:38;;;;;;;6.63;3.03;;;;;;;5.74;83.32;101599.56;5034172;28;20402;-68
2023/03/29 00:06:05;;;;;;;5.07;2.97;;;;;;;5.74;83.54;101610.06;5034507;28;20038;-68
2023/03/29 00:08:32;;;;;;;5.65;3.00;;;;;;;5.73;83.65;101609.13;5033166;28;20022;-68
2023/03/29 00:11:00;;;;;;;4.75;2.92;;;;;;;5.77;83.11;101608.44;5034395;28;20041;-68
2023/03/29 00:13:26;;;;;;;4.90;2.88;;;;;;;5.76;83.04;101603.13;5034367;28;20032;-68
2023/03/29 00:15:53;;;;;;;5.50;2.70;;;;;;;5.82;82.75;101592.88;5034364;28;20075;-68
2023/03/29 00:18:18;;;;;;;5.45;2.92;;;;;;;5.82;82.91;101594.63;5033982;28;20095;-68
2023/03/29 00:20:47;;;;;;;6.40;2.97;;;;;;;5.83;83.10;101588.56;5033919;28;20519;-67
2023/03/29 00:23:12;;;;;;;7.22;2.97;;;;;;;5.84;82.69;101590.34;5033891;28;20034;-68
2023/03/29 00:25:43;;;;;;;5.88;3.10;;;;;;;5.84;82.97;101577.22;5034044;28;20529;-67
2023/03/29 00:28:09;;;;;;;7.13;2.80;;;;;;;5.85;82.90;101581.63;5033919;28;20025;-67
2023/03/29 00:30:34;;;;;;;5.03;2.90;;;;;;;5.88;82.93;101587.91;5033648;28;20060;-68
2023/03/29 00:32:59;;;;;;;6.65;3.20;;;;;;;5.89;82.61;101573.97;5033681;28;20060;-68
2023/03/29 00:35:25;;;;;;;6.82;3.17;;;;;;;5.91;82.12;101574.00;5033732;28;20034;-68
2023/03/29 00:37:51;;;;;;;6.07;2.67;;;;;;;5.92;82.47;101570.63;5033606;28;20502;-68
2023/03/29 00:40:17;;;;;;;7.70;3.28;;;;;;;5.93;82.41;101575.03;5033559;28;20029;-68
2023/03/29 00:42:44;;;;;;;5.47;2.95;;;;;;;5.91;82.56;101576.63;5033883;28;20471;-68
2023/03/29 00:45:12;;;;;;;7.85;3.10;;;;;;;5.89;82.93;101575.69;5033487;28;20087;-68
2023/03/29 00:47:47;;;;;;;7.00;2.97;;;;;;;5.89;83.28;101573.06;5033282;28;20408;-68
2023/03/29 00:50:21;;;;;;;5.22;2.90;;;;;;;5.86;83.41;101568.56;5033431;28;20479;-68
2023/03/29 00:52:55;;;;;;;6.18;2.92;;;;;;;5.89;83.28;101565.19;5033683;28;20121;-68
2023/03/29 00:55:25;;;;;;;6.57;3.10;;;;;;;5.91;83.64;101555.66;5033311;28;20033;-68
2023/03/29 00:57:52;;;;;;;4.13;2.72;;;;;;;5.94;83.33;101561.06;5033336;28;20032;-68
2023/03/29 01:00:21;;;;;;;6.75;3.25;;;;;;;5.92;83.46;101555.75;5033156;28;20156;-68
2023/03/29 01:02:53;;;;;;;6.35;2.88;;;;;;;5.96;83.11;101554.16;5032807;28;20049;-68
2023/03/29 01:05:29;;;;;;;5.97;3.20;;;;;;;5.98;82.76;101549.88;5033361;28;20026;-68
2023/03/29 01:08:02;;;;;;;5.93;3.35;;;;;;;5.98;83.06;101544.63;5033550;28;20049;-68
2023/03/29 01:10:42;;;;;;;5.97;3.10;;;;;;;6.01;82.89;101547.38;5033479;28;20032;-68
2023/03/29 01:13:12;;;;;;;6.00;3.28;;;;;;;6.03;82.76;101545.69;5033193;28;20029;-68
2023/03/29 01:15:40;;;;;;;5.35;2.80;;;;;;;6.03;83.47;101545.69;5033135;28;20029;-68
2023/03/29 01:18:07;;;;;;;5.80;3.30;;;;;;;6.02;84.17;101547.44;5033014;28;20354;-68
2023/03/29 01:21:04;;;;;;;7.40;3.05;;;;;;;6.04;84.68;101547.50;5032931;28;20021;-68
2023/03/29 01:23:52;;;;;;;5.65;3.33;;;;;;;6.03;85.80;101548.31;5033292;28;20033;-68
2023/03/29 01:26:25;;;;;;;12.90;3.90;;;;;;;6.02;85.59;101544.81;5032489;28;20178;-68
2023/03/29 01:29:20;;;;;;;6.97;3.17;;;;;;;6.03;85.64;101541.34;5033225;28;20029;-68
2023/03/29 01:31:56;;;;;;;4.30;2.85;;;;;;;5.95;85.64;101519.19;5029770;28;20498;-68
2023/03/29 01:34:32;;;;;;;6.32;3.00;;;;;;;6.04;85.89;101518.66;5031599;28;20026;-68
2023/03/29 01:37:08;;;;;;;10.25;3.03;;;;;;;6.06;86.34;101526.56;5033006;28;20022;-67
2023/03/29 01:39:36;;;;;;;5.03;3.03;;;;;;;6.05;86.51;101519.53;5033275;28;20079;-67
2023/03/29 01:42:04;;;;;;;6.85;3.30;;;;;;;6.06;87.23;101513.44;5032960;28;20053;-68
2023/03/29 01:45:12;;;;;;;6.75;3.13;;;;;;;6.06;87.42;101508.22;5036126;28;20022;-68
2023/03/29 01:48:09;;;;;;;7.43;3.20;;;;;;;6.05;87.87;101512.56;5036420;28;20037;-68
2023/03/29 01:50:49;;;;;;;7.88;3.15;;;;;;;6.04;87.57;101505.53;5036926;28;20069;-68
2023/03/29 01:53:37;;;;;;;8.32;3.40;;;;;;;6.02;88.38;101504.56;5036802;28;20036;-68
2023/03/29 01:56:17;;;;;;;7.78;3.30;;;;;;;6.03;88.02;101495.84;5036913;28;20021;-68
2023/03/29 01:58:47;;;;;;;7.32;3.53;;;;;;;6.06;88.59;101500.34;5036546;28;20033;-68
2023/03/29 02:01:18;;;;;;;5.13;3.10;;;;;;;6.06;89.07;101493.34;5036928;28;20026;-67
2023/03/29 02:03:48;;;;;;;6.68;3.25;;;;;;;6.08;89.28;101493.41;5036531;28;20054;-68
2023/03/29 02:06:20;;;;;;;5.60;3.15;;;;;;;6.07;89.41;101484.63;5036490;28;20060;-68
2023/03/29 02:08:47;;;;;;;7.07;3.30;;;;;;;6.09;90.19;101487.34;5036605;28;20036;-68
2023/03/29 02:11:13;;;;;;;6.18;3.13;;;;;;;6.10;89.11;101486.50;5036540;28;20718;-68
2023/03/29 02:13:39;;;;;;;5.32;2.97;;;;;;;6.09;89.43;101489.97;5036428;28;20025;-68
2023/03/29 02:16:11;;;;;;;7.63;3.28;;;;;;;6.10;89.20;101478.63;5036518;28;20551;-67
2023/03/29 02:18:39;;;;;;;8.07;3.25;;;;;;;6.15;89.40;101479.69;5036207;28;20037;-68
2023/03/29 02:21:05;;;;;;;10.95;2.97;;;;;;;6.16;88.97;101468.34;5034980;28;20033;-68
2023/03/29 02:23:44;;;;;;;4.97;2.95;;;;;;;6.19;89.10;101465.88;5036463;28;20068;-68
2023/03/29 02:26:09;;;;;;;6.00;2.90;;;;;;;6.21;88.76;101459.84;5035360;28;20065;-68
2023/03/29 02:28:35;;;;;;;6.10;3.25;;;;;;;6.21;88.80;101458.94;5036105;28;20030;-68
2023/03/29 02:31:13;;;;;;;7.63;3.50;;;;;;;6.22;88.64;101459.00;5034732;28;20030;-68
2023/03/29 02:33:52;;;;;;;8.88;3.33;;;;;;;6.24;88.88;101459.06;5035948;28;20073;-68
2023/03/29 02:36:19;;;;;;;6.22;3.17;;;;;;;6.24;88.87;101451.19;5035961;28;20029;-68
2023/03/29 02:38:46;;;;;;;7.28;3.15;;;;;;;6.20;88.27;101449.28;5035936;28;20479;-68
2023/03/29 02:41:12;;;;;;;5.38;3.22;;;;;;;6.24;88.74;101451.19;5035832;28;20493;-68
2023/03/29 02:43:39;;;;;;;6.28;3.35;;;;;;;6.24;88.04;101449.44;5035936;28;20025;-68
2023/03/29 02:46:06;;;;;;;4.95;2.85;;;;;;;6.28;87.42;101443.47;5035788;28;20037;-68
2023/03/29 02:48:35;;;;;;;5.50;2.88;;;;;;;6.30;87.35;101434.78;5035654;28;20090;-68
2023/03/29 02:51:07;;;;;;;8.52;3.22;;;;;;;6.33;86.27;101443.66;5035725;28;20519;-68
2023/03/29 02:53:42;;;;;;;7.25;3.22;;;;;;;6.33;86.02;101427.91;5035726;28;20429;-68
2023/03/29 02:56:07;;;;;;;6.85;3.58;;;;;;;6.35;85.86;101422.72;5034555;28;20037;-68
2023/03/29 02:58:35;;;;;;;7.43;3.22;;;;;;;6.39;85.04;101425.53;5034276;28;20036;-67
2023/03/29 03:01:04;;;;;;;4.93;2.80;;;;;;;6.41;84.47;101429.09;5035392;28;20029;-67
2023/03/29 03:03:30;;;;;;;5.55;2.70;;;;;;;6.43;84.38;101421.28;5035152;28;20494;-68
2023/03/29 03:05:56;;;;;;;7.20;3.08;;;;;;;6.41;84.37;101418.59;5035472;28;20094;-68
2023/03/29 03:08:22;;;;;;;5.85;2.70;;;;;;;6.45;83.48;101425.72;5035432;28;20033;-68
2023/03/29 03:10:48;;;;;;;6.45;2.97;;;;;;;6.46;82.42;101426.63;5035215;28;20024;-68
2023/03/29 03:13:13;;;;;;;6.13;2.70;;;;;;;6.48;82.11;101425.84;5035598;28;20026;-67
2023/03/29 03:15:41;;;;;;;4.80;2.80;;;;;;;6.49;82.65;101425.00;5035377;28;20029;-68
2023/03/29 03:18:08;;;;;;;6.30;2.80;;;;;;;6.53;82.48;101423.41;5035408;28;20026;-67
2023/03/29 03:20:34;;;;;;;5.28;2.78;;;;;;;6.51;81.91;101412.84;5035462;28;20033;-67
2023/03/29 03:23:02;;;;;;;6.90;2.80;;;;;;;6.54;82.01;101419.94;5035144;28;20075;-67
2023/03/29 03:25:28;;;;;;;6.47;2.83;;;;;;;6.57;80.88;101416.53;5035076;28;20030;-67
2023/03/29 03:27:54;;;;;;;5.93;2.80;;;;;;;6.58;81.66;101413.94;5033724;28;20076;-67
2023/03/29 03:30:19;;;;;;;6.47;2.67;;;;;;;6.56;81.29;101407.75;5034948;28;20069;-67
2023/03/29 03:32:45;;;;;;;5.28;2.65;;;;;;;6.58;81.27;101406.06;5035028;28;20063;-68
2023/03/29 03:35:11;;;;;;;4.85;2.50;;;;;;;6.62;80.87;101399.19;5035134;28;20053;-67
2023/03/29 03:37:38;;;;;;;5.28;2.72;;;;;;;6.64;80.80;101413.28;5034834;28;20018;-67
2023/03/29 03:40:05;;;;;;;4.30;2.63;;;;;;;6.63;81.02;101400.97;5034743;28;20021;-68
2023/03/29 03:42:31;;;;;;;5.00;2.45;;;;;;;6.63;80.64;101407.13;5033066;28;20021;-67
2023/03/29 03:44:57;;;;;;;4.93;2.85;;;;;;;6.65;80.93;101410.72;5034699;28;20078;-67
2023/03/29 03:47:23;;;;;;;4.78;2.90;;;;;;;6.66;80.89;101411.59;5034773;28;20157;-67
2023/03/29 03:49:50;;;;;;;6.40;3.20;;;;;;;6.65;80.59;101408.09;5034555;28;20030;-67
2023/03/29 03:52:17;;;;;;;4.80;2.80;;;;;;;6.68;80.86;101405.59;5034686;28;20037;-68
2023/03/29 03:54:45;;;;;;;4.93;2.70;;;;;;;6.66;80.75;101403.72;5034539;28;20037;-68
2023/03/29 03:57:11;;;;;;;8.18;3.28;;;;;;;6.70;81.06;101411.75;5034555;28;20087;-68
2023/03/29 03:59:37;;;;;;;5.53;2.83;;;;;;;6.73;80.70;101416.25;5032980;28;20483;-68
2023/03/29 04:02:03;;;;;;;6.43;3.10;;;;;;;6.72;80.67;101409.19;5034346;28;20079;-67
2023/03/29 04:04:29;;;;;;;5.75;3.10;;;;;;;6.74;80.42;101407.53;5034062;28;20049;-68
2023/03/29 04:07:01;;;;;;;4.88;2.78;;;;;;;6.74;80.46;101404.88;5033802;28;20044;-67
2023/03/29 04:09:31;;;;;;;6.35;2.90;;;;;;;6.77;79.58;101405.91;5034451;28;20037;-67
2023/03/29 04:11:57;;;;;;;5.38;2.90;;;;;;;6.78;80.29;101404.16;5034336;28;20053;-67
2023/03/29 04:14:22;;;;;;;5.82;2.90;;;;;;;6.82;79.50;101398.19;5034163;28;20057;-67
2023/03/29 04:16:48;;;;;;;5.50;2.83;;;;;;;6.80;80.06;101394.59;5033841;28;20060;-68
2023/03/29 04:19:13;;;;;;;7.30;3.28;;;;;;;6.82;79.47;101394.66;5034093;28;20025;-67
2023/03/29 04:21:39;;;;;;;7.72;3.00;;;;;;;6.84;79.78;101400.84;5033902;28;20060;-67
2023/03/29 04:24:08;;;;;;;8.13;3.20;;;;;;;6.82;80.17;101397.28;5033841;28;20503;-67
2023/03/29 04:26:33;;;;;;;6.63;3.20;;;;;;;6.82;79.57;101381.53;5033845;28;20018;-68
2023/03/29 04:28:59;;;;;;;7.10;3.50;;;;;;;6.81;80.16;101388.53;5035369;28;20021;-68
2023/03/29 04:31:24;;;;;;;5.63;3.10;;;;;;;6.84;80.30;101380.72;5053851;28;20032;-67
2023/03/29 04:33:50;;;;;;;6.43;3.10;;;;;;;6.86;80.46;101378.16;5053799;28;20484;-67
2023/03/29 04:36:15;;;;;;;5.68;3.15;;;;;;;6.86;79.86;101383.41;5053557;28;20439;-68
2023/03/29 04:38:41;;;;;;;6.68;2.97;;;;;;;6.86;80.39;101381.69;5035654;28;20027;-69
2023/03/29 04:41:08;;;;;;;6.85;3.20;;;;;;;6.87;80.54;101383.47;5053393;28;20037;-68
2023/03/29 04:43:33;;;;;;;7.90;2.92;;;;;;;6.88;80.80;101379.09;5053415;28;20029;-67
2023/03/29 04:45:59;;;;;;;9.25;3.15;;;;;;;6.91;79.12;101380.09;5053303;28;20064;-68
2023/03/29 04:48:25;;;;;;;6.35;3.25;;;;;;;6.93;79.60;101377.50;5053412;28;20120;-67
2023/03/29 04:50:53;;;;;;;5.72;3.10;;;;;;;6.91;79.87;101380.09;5053527;28;20036;-67
2023/03/29 04:53:19;;;;;;;7.70;3.42;;;;;;;6.97;80.00;101379.41;5053200;28;20091;-68
2023/03/29 04:55:46;;;;;;;5.10;3.25;;;;;;;6.97;80.29;101382.91;5053101;28;20362;-67
2023/03/29 04:58:11;;;;;;;5.40;3.05;;;;;;;6.98;80.13;101374.22;5053046;28;20113;-67
2023/03/29 05:00:37;;;;;;;10.27;3.50;;;;;;;6.99;80.01;101367.22;5053083;28;20496;-67
2023/03/29 05:03:03;;;;;;;8.48;3.30;;;;;;;6.97;79.18;101356.66;5052713;28;20045;-68
2023/03/29 05:05:29;;;;;;;7.05;3.40;;;;;;;7.03;79.66;101367.38;5052937;28;20037;-68
2023/03/29 05:07:54;;;;;;;8.45;3.30;;;;;;;7.03;79.83;101364.75;5053074;28;20037;-68
2023/03/29 05:10:20;;;;;;;7.60;3.58;;;;;;;7.04;80.26;101363.00;5053050;28;20074;-67
2023/03/29 05:12:45;;;;;;;9.57;3.58;;;;;;;7.03;80.66;101358.59;5052938;28;20462;-68
2023/03/29 05:15:12;;;;;;;6.70;3.40;;;;;;;7.06;79.60;101356.06;5052847;28;20021;-67
2023/03/29 05:17:41;;;;;;;9.32;3.40;;;;;;;7.07;80.29;101360.50;5052276;28;20060;-68
2023/03/29 05:20:09;;;;;;;6.32;3.33;;;;;;;7.07;79.98;101363.13;5035526;28;20057;-68
2023/03/29 05:22:35;;;;;;;5.72;3.47;;;;;;;7.09;81.05;101360.53;5052737;28;20497;-68
2023/03/29 05:25:00;;;;;;;8.13;3.42;;;;;;;7.08;81.38;101357.03;5052807;28;20021;-67
2023/03/29 05:27:26;;;;;;;7.22;3.53;;;;;;;7.10;80.74;101362.31;5034906;28;20445;-67
2023/03/29 05:29:52;;;;;;;8.40;3.83;;;;;;;7.12;80.12;101361.53;5053030;28;20466;-67
2023/03/29 05:32:17;;;;;;;8.68;3.33;;;;;;;7.14;80.75;101369.47;5052930;28;20064;-67
2023/03/29 05:34:43;;;;;;;10.32;3.60;;;;;;;7.16;80.36;101371.31;5052662;28;20469;-68
2023/03/29 05:37:09;;;;;;;7.18;3.40;;;;;;;7.18;80.86;101376.59;5052674;28;20123;-67
2023/03/29 05:39:36;;;;;;;7.65;3.30;;;;;;;7.19;80.73;101375.75;5034776;28;20524;-67
2023/03/29 05:42:03;;;;;;;7.65;3.55;;;;;;;7.22;80.64;101378.50;5035059;28;20532;-67
2023/03/29 05:44:28;;;;;;;8.00;3.80;;;;;;;7.25;80.08;101387.38;5052859;28;20033;-68
2023/03/29 05:46:54;;;;;;;9.68;3.97;;;;;;;7.27;80.12;101371.66;5052531;28;20072;-68
2023/03/29 05:49:20;;;;;;;9.63;3.42;;;;;;;7.29;80.67;101367.34;5052603;28;20036;-67
2023/03/29 05:51:45;;;;;;;9.05;3.63;;;;;;;7.34;81.50;101372.75;5052910;28;20128;-67
2023/03/29 05:54:11;;;;;;;8.70;3.80;;;;;;;7.38;80.41;101372.00;5052538;28;20116;-67
2023/03/29 05:56:37;;;;;;;9.02;3.70;;;;;;;7.40;81.36;101371.19;5052847;28;20029;-67
2023/03/29 05:59:02;;;;;;;11.50;4.35;;;;;;;7.43;80.78;101373.94;5052290;28;20044;-68
2023/03/29 06:01:29;;;;;;;6.22;3.28;;;;;;;7.44;80.50;101375.72;5052449;28;20033;-67
2023/03/29 06:03:56;;;;;;;10.75;3.65;;;;;;;7.47;81.14;101377.56;5052319;28;20072;-67
2023/03/29 06:06:21;;;;;;;9.23;3.75;;;;;;;7.49;80.47;101376.78;5052726;28;20112;-68
2023/03/29 06:08:47;;;;;;;8.98;3.53;;;;;;;7.55;80.99;101381.31;5052466;28;20551;-67
2023/03/29 06:11:13;;;;;;;9.52;3.83;;;;;;;7.55;80.95;101378.69;5052400;28;20037;-67
2023/03/29 06:13:38;;;;;;;10.18;3.83;;;;;;;7.58;81.11;101376.16;5052311;28;20025;-67
2023/03/29 06:16:09;;;;;;;13.20;3.78;;;;;;;7.64;81.61;101388.59;5052393;28;20466;-67
2023/03/29 06:18:36;;;;;;;6.97;3.60;;;;;;;7.68;80.31;101380.84;5052305;28;20025;-68
2023/03/29 06:21:03;;;;;;;10.40;3.80;;;;;;;7.70;80.65;101380.88;5052166;28;20064;-67
2023/03/29 06:23:29;;;;;;;10.23;4.10;;;;;;;7.72;81.12;101387.13;5052664;28;20029;-67
2023/03/29 06:25:55;;;;;;;10.50;3.97;;;;;;;7.74;81.14;101386.28;5052266;28;20028;-68
2023/03/29 06:28:22;;;;;;;11.07;3.95;;;;;;;7.77;81.08;101388.13;5052162;28;20021;-67
2023/03/29 06:30:48;;;;;;;10.43;4.03;;;;;;;7.80;81.28;101382.97;5055677;28;20104;-67
2023/03/29 06:33:15;;;;;;;8.95;3.88;;;;;;;7.81;81.54;101389.13;5037951;28;20110;-67
2023/03/29 06:35:43;;;;;;;9.98;4.05;;;;;;;7.86;81.50;101385.78;5055902;28;20044;-67
2023/03/29 06:38:09;;;;;;;9.88;4.30;;;;;;;7.89;81.03;101385.00;5056212;28;20083;-67
2023/03/29 06:40:36;;;;;;;9.02;4.18;;;;;;;7.92;81.25;101383.34;5055963;28;20075;-68
2023/03/29 06:43:02;;;;;;;10.18;3.85;;;;;;;7.94;81.55;101380.75;5056090;28;20033;-67
2023/03/29 06:45:31;;;;;;;12.50;4.43;;;;;;;8.00;80.99;101378.28;5055904;28;20071;-67
2023/03/29 06:47:56;;;;;;;12.30;4.40;;;;;;;8.00;82.20;101376.56;5055781;28;20029;-68
2023/03/29 06:50:23;;;;;;;10.02;4.43;;;;;;;8.03;81.10;101374.03;5055810;28;20028;-67
2023/03/29 06:52:49;;;;;;;10.85;4.03;;;;;;;8.08;81.40;101374.16;5055680;28;20025;-67
2023/03/29 06:55:17;;;;;;;9.57;4.10;;;;;;;8.10;81.75;101382.13;5055882;28;20061;-67
2023/03/29 06:57:46;;;;;;;9.32;4.13;;;;;;;8.12;81.14;101378.66;5055423;28;20048;-67
2023/03/29 07:00:26;;;;;;;12.73;5.10;;;;;;;8.16;81.37;101385.81;5055569;28;20035;-67
2023/03/29 07:03:05;;;;;;;9.52;4.43;;;;;;;8.17;81.90;101376.16;5055203;28;20106;-67
2023/03/29 07:05:31;;;;;;;10.45;4.30;;;;;;;8.26;81.27;101385.25;5055378;28;20124;-67
2023/03/29 07:08:09;;;;;;;13.48;4.60;;;;;;;8.31;81.89;101377.47;5055510;28;20032;-67
2023/03/29 07:10:38;;;;;;;7.82;3.97;;;;;;;8.38;81.80;101384.72;5055408;28;20502;-67
2023/03/29 07:13:09;;;;;;;11.65;4.45;;;;;;;8.41;81.94;101381.28;5055348;28;20024;-67
2023/03/29 07:15:35;;;;;;;9.68;3.95;;;;;;;8.44;81.86;101389.28;5055284;28;20494;-67
2023/03/29 07:18:02;;;;;;;10.55;4.10;;;;;;;8.44;81.90;101389.28;5055047;28;20443;-67
2023/03/29 07:20:28;;;;;;;10.00;4.30;;;;;;;8.47;81.96;101397.25;5037462;28;20021;-66
2023/03/29 07:22:53;;;;;;;14.52;4.80;;;;;;;8.50;82.12;101392.06;5055171;28;20083;-67
2023/03/29 07:25:23;;;;;;;9.93;4.22;;;;;;;8.52;81.34;101392.97;5055221;28;20025;-67
2023/03/29 07:27:50;;;;;;;11.48;4.10;;;;;;;8.57;81.87;101401.94;5054857;28;20029;-66
2023/03/29 07:30:22;;;;;;;9.65;4.20;;;;;;;8.60;81.92;101393.22;5055206;28;20029;-67
2023/03/29 07:32:49;;;;;;;9.20;3.92;;;;;;;8.63;81.80;101399.47;5054692;28;20394;-67
2023/03/29 07:35:17;;;;;;;9.95;4.10;;;;;;;8.65;82.20;101397.78;5054908;28;20509;-67
2023/03/29 07:37:45;;;;;;;8.60;4.32;;;;;;;8.70;82.28;101404.06;5054748;28;20531;-66
2023/03/29 07:40:15;;;;;;;8.15;3.92;;;;;;;8.72;82.39;101406.72;5054154;28;20182;-66
2023/03/29 07:42:47;;;;;;;9.57;3.80;;;;;;;8.77;82.33;101411.25;5037082;28;20037;-66
2023/03/29 07:45:15;;;;;;;9.90;4.28;;;;;;;8.81;82.30;101422.78;5052548;28;20469;-67
2023/03/29 07:47:42;;;;;;;7.90;3.83;;;;;;;8.81;82.66;101425.41;5054409;28;20029;-67
2023/03/29 07:50:08;;;;;;;7.93;4.03;;;;;;;8.85;83.08;101424.63;5036852;28;20027;-66
2023/03/29 07:52:37;;;;;;;7.78;4.00;;;;;;;8.87;82.77;101428.22;5054455;28;20044;-67
2023/03/29 07:55:03;;;;;;;8.77;4.07;;;;;;;8.88;83.70;101418.56;5054561;28;20021;-67
2023/03/29 07:57:31;;;;;;;11.95;4.15;;;;;;;8.87;84.02;101430.88;5054379;28;20029;-67
2023/03/29 07:59:57;;;;;;;8.48;4.05;;;;;;;8.89;84.39;101426.50;5054451;28;20421;-67
2023/03/29 08:02:23;;;;;;;8.40;4.20;;;;;;;8.88;85.78;101430.00;5035908;28;20120;-67
2023/03/29 08:04:48;;;;;;;8.50;4.45;;;;;;;8.88;86.37;101424.72;5054145;28;20025;-67
2023/03/29 08:07:17;;;;;;;11.98;4.57;;;;;;;8.86;87.12;101426.41;5054157;28;20478;-67
2023/03/29 08:09:43;;;;;;;7.90;4.50;;;;;;;8.87;86.83;101419.44;5054325;28;20033;-67
2023/03/29 08:12:09;;;;;;;8.15;4.45;;;;;;;8.86;87.49;101425.53;5053930;28;20025;-67
2023/03/29 08:14:35;;;;;;;11.43;4.45;;;;;;;8.87;88.41;101422.97;5054070;28;20076;-67
2023/03/29 08:17:01;;;;;;;10.57;5.07;;;;;;;8.88;89.13;101411.56;5052707;28;20140;-67
2023/03/29 08:19:27;;;;;;;10.35;4.80;;;;;;;8.90;90.30;101415.09;5053856;28;20032;-67
2023/03/29 08:21:52;;;;;;;8.80;4.93;;;;;;;8.94;90.00;101416.09;5036229;28;20394;-67
2023/03/29 08:24:18;;;;;;;10.40;4.70;;;;;;;8.93;90.88;101427.50;5053932;28;20544;-67
2023/03/29 08:26:43;;;;;;;8.70;4.70;;;;;;;8.96;91.34;101417.94;5053891;28;20437;-67
2023/03/29 08:29:09;;;;;;;12.85;4.90;;;;;;;8.96;92.10;101412.66;5053900;28;20470;-67
2023/03/29 08:31:34;;;;;;;12.43;5.22;;;;;;;8.98;91.91;101407.41;5053800;28;20036;-67
2023/03/29 08:34:00;;;;;;;10.02;5.03;;;;;;;9.03;92.03;101404.03;5019197;28;20439;-67
2023/03/29 08:36:26;;;;;;;12.50;5.35;;;;;;;9.10;91.87;101398.94;5053694;28;20029;-67
2023/03/29 08:38:52;;;;;;;11.75;5.15;;;;;;;9.17;92.78;101398.25;5053612;28;20029;-67
2023/03/29 08:41:26;;;;;;;12.32;5.55;;;;;;;9.23;92.48;101396.66;5053502;28;20032;-67
2023/03/29 08:44:08;;;;;;;12.13;5.25;;;;;;;9.29;92.37;101393.25;5053019;28;20367;-67
2023/03/29 08:47:06;;;;;;;11.50;5.18;;;;;;;9.33;92.33;101386.31;5053832;28;20032;-67
2023/03/29 08:49:36;;;;;;;8.82;4.97;;;;;;;9.40;91.14;101393.53;5053492;28;20029;-66
2023/03/29 08:52:05;;;;;;;13.98;5.55;;;;;;;9.41;91.58;101397.94;5053673;28;20111;-66
2023/03/29 08:54:42;;;;;;;11.98;5.40;;;;;;;9.47;91.60;101406.91;5053411;28;20025;-67
2023/03/29 08:57:27;;;;;;;9.93;5.50;;;;;;;9.51;91.16;101398.22;5053379;28;20090;-66
2023/03/29 08:59:55;;;;;;;10.65;5.68;;;;;;;9.52;91.78;101399.09;5053581;28;20036;-67
2023/03/29 09:02:24;;;;;;;10.32;5.35;;;;;;;9.59;91.81;101397.50;5052969;28;20406;-66
2023/03/29 09:04:55;;;;;;;11.88;5.47;;;;;;;9.65;91.56;101405.56;5053044;28;20097;-66
2023/03/29 09:07:21;;;;;;;14.50;5.60;;;;;;;9.72;92.19;101395.19;5053223;28;20423;-66
2023/03/29 09:09:47;;;;;;;9.43;5.05;;;;;;;9.81;91.25;101398.88;5053088;28;20055;-66
2023/03/29 09:12:18;;;;;;;11.90;5.55;;;;;;;9.83;90.37;101397.19;5035234;28;20078;-66
2023/03/29 09:14:46;;;;;;;12.40;5.50;;;;;;;9.86;90.29;101399.91;5035148;28;20111;-66
2023/03/29 09:17:33;;;;;;;13.27;5.65;;;;;;;9.88;89.54;101387.59;5035056;28;20033;-66
2023/03/29 09:20:11;;;;;;;14.90;5.43;;;;;;;9.91;90.44;101399.13;5053251;28;20029;-66
2023/03/29 09:22:48;;;;;;;13.38;5.45;;;;;;;9.96;90.40;101399.22;5053152;28;20037;-66
2023/03/29 09:25:20;;;;;;;12.02;5.20;;;;;;;10.00;91.17;101399.31;5052996;28;20557;-66
2023/03/29 09:28:14;;;;;;;10.43;4.88;;;;;;;10.06;90.19;101403.84;5052931;28;20037;-66
2023/03/29 09:30:46;;;;;;;12.30;5.47;;;;;;;10.01;91.03;101398.47;5052887;28;20082;-66
2023/03/29 09:33:20;;;;;;;16.53;5.70;;;;;;;9.93;92.06;101393.88;5034953;28;20390;-67
2023/03/29 09:35:57;;;;;;;12.60;5.78;;;;;;;9.90;92.64;101409.66;5052838;28;20267;-67
2023/03/29 09:38:27;;;;;;;11.40;5.72;;;;;;;9.85;93.67;101404.28;5053058;28;20036;-67
2023/03/29 09:41:03;;;;;;;11.38;5.28;;;;;;;9.75;94.06;101395.25;5052696;28;20029;-67
2023/03/29 09:43:35;;;;;;;10.77;5.72;;;;;;;9.76;95.04;101398.78;5053103;28;20052;-67
2023/03/29 09:46:05;;;;;;;10.85;5.88;;;;;;;9.74;94.47;101396.09;5053030;28;20036;-66
2023/03/29 09:48:38;;;;;;;12.02;5.50;;;;;;;9.75;95.65;101400.53;5052875;28;20043;-67
2023/03/29 09:51:05;;;;;;;;;;;;;;;9.78;95.13;101390.03;5053405;28;20025;-67
2023/03/29 09:53:30;;;;;;;15.27;5.95;;;;;;;9.76;96.07;101399.69;5052723;28;19913;-67
2023/03/29 09:55:57;;;;;;;13.32;6.22;;;;;;;9.75;96.74;101397.88;5035116;28;20042;-67
2023/03/29 09:58:26;;;;;;;12.15;5.72;;;;;;;9.81;96.82;101404.16;5052579;28;20037;-67
2023/03/29 10:00:55;;;;;;;13.98;5.70;;;;;;;9.85;96.18;101406.94;5052526;28;20028;-67
2023/03/29 10:03:24;;;;;;;11.23;6.35;;;;;;;9.81;97.01;101409.44;5052260;28;20048;-67
2023/03/29 10:05:53;;;;;;;15.23;6.05;;;;;;;9.79;98.09;101401.50;5056503;28;20017;-67
2023/03/29 10:08:25;;;;;;;11.70;5.75;;;;;;;9.82;98.63;101405.97;5056464;28;20017;-67
2023/03/29 10:10:51;;;;;;;13.88;6.15;;;;;;;9.84;98.97;101404.22;5056655;28;20028;-67
2023/03/29 10:13:32;;;;;;;11.45;6.13;;;;;;;9.90;98.34;101399.09;5056397;28;20029;-67
2023/03/29 10:16:00;;;;;;;10.85;5.97;;;;;;;9.93;98.06;101412.34;5046552;28;20479;-67
2023/03/29 10:18:29;;;;;;;13.85;6.93;;;;;;;9.95;98.70;101400.09;5043908;28;20037;-67
2023/03/29 10:21:04;;;;;;;10.95;6.25;;;;;;;10.01;98.36;101394.94;5046379;28;20060;-67
2023/03/29 10:23:35;;;;;;;11.77;6.57;;;;;;;10.05;99.11;101391.50;5053297;28;20119;-67
2023/03/29 10:26:20;;;;;;;15.77;6.18;;;;;;;10.12;97.71;101393.44;5041449;28;20378;-66
2023/03/29 10:28:46;;;;;;;10.65;6.43;;;;;;;10.13;97.71;101389.03;5045136;28;20514;-67
2023/03/29 10:31:19;;;;;;;11.63;5.90;;;;;;;10.11;99.29;101385.50;5045237;28;20025;-67
2023/03/29 10:33:54;;;;;;;10.02;6.03;;;;;;;10.13;99.71;101378.47;5017886;28;20048;-67
2023/03/29 10:36:21;;;;;;;11.63;5.90;;;;;;;10.14;99.10;101380.25;5036161;28;20026;-67
2023/03/29 10:38:49;;;;;;;12.77;6.47;;;;;;;10.19;99.13;101375.94;5035783;28;20026;-70
2023/03/29 10:41:16;;;;;;;9.90;6.35;;;;;;;10.30;99.51;101377.09;5035887;28;20022;-67
2023/03/29 10:43:49;;;;;;;13.20;6.50;;;;;;;10.40;99.72;101381.69;5035920;28;20025;-67
2023/03/29 10:46:20;;;;;;;8.98;5.95;;;;;;;10.52;98.23;101371.38;5035856;28;20475;-67
2023/03/29 10:48:48;;;;;;;9.55;6.20;;;;;;;10.67;97.40;101370.78;5035738;28;20037;-66
2023/03/29 10:51:17;;;;;;;11.40;6.20;;;;;;;10.83;97.49;101364.00;5036084;28;20052;-66
2023/03/29 10:53:42;;;;;;;10.93;6.10;;;;;;;10.97;96.96;101357.25;5035708;28;20025;-67
2023/03/29 10:56:38;;;;;;;10.43;6.10;;;;;;;11.09;95.21;101351.28;5035917;28;20037;-67
2023/03/29 10:59:08;;;;;;;10.02;5.88;;;;;;;11.21;94.84;101345.28;5035409;28;20075;-66
2023/03/29 11:01:52;;;;;;;10.32;6.35;;;;;;;11.42;93.85;101332.38;5035867;28;20033;-66
2023/03/29 11:04:38;;;;;;;10.88;5.97;;;;;;;11.60;91.70;101336.16;5021298;28;20065;-66
2023/03/29 11:07:22;;;;;;;9.35;5.32;;;;;;;11.84;90.76;101338.31;5016026;28;20026;-66
2023/03/29 11:10:06;;;;;;;9.27;5.07;;;;;;;11.94;89.55;101334.91;5015657;28;20032;-66
2023/03/29 11:12:40;;;;;;;9.60;5.45;;;;;;;12.02;89.21;101330.59;5015678;28;20030;-67
2023/03/29 11:15:18;;;;;;;8.93;5.25;;;;;;;12.19;88.73;101329.03;5015109;28;20037;-66
2023/03/29 11:18:12;;;;;;;8.50;5.25;;;;;;;12.36;89.12;101317.75;5015279;28;20030;-66
2023/03/29 11:20:38;;;;;;;11.40;5.80;;;;;;;12.72;87.78;101312.84;5015265;28;20093;-66
2023/03/29 11:23:15;;;;;;;12.85;5.45;;;;;;;13.00;84.35;101318.38;5015415;28;20018;-66
2023/03/29 11:26:02;;;;;;;9.25;5.07;;;;;;;13.16;84.83;101304.34;5015541;28;20029;-67
2023/03/29 11:28:55;;;;;;;9.20;4.95;;;;;;;13.39;83.79;101315.16;5015126;28;20483;-67
2023/03/29 11:31:39;;;;;;;8.20;4.72;;;;;;;13.49;82.04;101313.47;5015296;28;20025;-66
2023/03/29 11:34:16;;;;;;;10.60;5.70;;;;;;;13.67;82.44;101318.88;5015252;28;20080;-66
2023/03/29 11:36:56;;;;;;;7.80;5.30;;;;;;;13.80;79.15;101332.22;5015191;28;20100;-66
2023/03/29 11:39:24;;;;;;;8.63;5.18;;;;;;;13.94;79.99;101336.72;5015199;28;20103;-67
2023/03/29 11:41:55;;;;;;;9.45;4.95;;;;;;;14.00;79.44;101336.78;5014945;28;20026;-67